Time;durP1;ratioP1;P1;durP2;ratioP2;P2;SDS_P1;SDS_P2;PMS_P1;PMS_P2;Temp;Humidity;BMP_temperature;BMP_pressure;BME280_temperature;BME280_humidity;BME280_pressure;Samples;Min_cycle;Max_cycle;Signal;HPM_P1;HPM_P2
2022/01/16 00:04:16;;;;;;;92.35;36.55;;;;;;;2.27;87.39;102405.53;5044421;28;20035;-69
2022/01/16 00:06:45;;;;;;;96.78;37.55;;;;;;;2.29;87.29;102399.47;5028123;28;20446;-71
2022/01/16 00:09:10;;;;;;;91.68;33.05;;;;;;;2.29;87.63;102397.78;5047205;28;20017;-72
2022/01/16 00:11:36;;;;;;;87.53;33.85;;;;;;;2.36;87.57;102398.78;5049302;28;20041;-70
2022/01/16 00:14:02;;;;;;;84.63;31.35;;;;;;;2.37;87.46;102409.25;5037215;28;20033;-71
2022/01/16 00:16:28;;;;;;;89.50;32.50;;;;;;;2.43;87.30;102408.50;5029399;28;20030;-71
2022/01/16 00:18:54;;;;;;;79.22;32.38;;;;;;;2.38;87.49;102408.38;5027867;28;20079;-70
2022/01/16 00:21:24;;;;;;;91.78;36.13;;;;;;;2.40;87.21;102396.31;5029374;28;20033;-70
2022/01/16 00:23:50;;;;;;;80.63;30.63;;;;;;;2.44;87.00;102399.00;5029087;28;20211;-71
2022/01/16 00:26:16;;;;;;;86.22;30.10;;;;;;;2.46;87.32;102387.78;5028207;28;20112;-70
2022/01/16 00:28:42;;;;;;;90.53;34.05;;;;;;;2.50;87.05;102394.81;5028567;28;20092;-72
2022/01/16 00:31:07;;;;;;;90.15;33.45;;;;;;;2.50;87.24;102394.81;5028289;28;20113;-71
2022/01/16 00:33:33;;;;;;;85.93;33.00;;;;;;;2.56;87.13;102390.63;5029361;28;20049;-72
2022/01/16 00:35:58;;;;;;;94.75;35.30;;;;;;;2.59;87.29;102404.56;5028826;28;20033;-72
2022/01/16 00:38:23;;;;;;;97.50;37.15;;;;;;;2.58;87.60;102395.00;5027571;28;20085;-71
2022/01/16 00:40:49;;;;;;;103.93;37.03;;;;;;;2.67;87.33;102398.69;5027462;28;20040;-71
2022/01/16 00:43:14;;;;;;;111.57;35.25;;;;;;;2.66;87.72;102400.41;5027963;28;20026;-68
2022/01/16 00:45:39;;;;;;;109.07;36.67;;;;;;;2.75;87.58;102405.84;5028613;28;20086;-72
2022/01/16 00:48:06;;;;;;;104.05;36.28;;;;;;;2.78;87.70;102407.63;5028921;28;20032;-72
2022/01/16 00:50:33;;;;;;;95.47;34.05;;;;;;;2.77;87.85;102409.34;5028622;28;20404;-72
2022/01/16 00:52:58;;;;;;;108.30;36.80;;;;;;;2.79;87.82;102396.38;5028255;28;20021;-70
2022/01/16 00:55:23;;;;;;;113.68;38.20;;;;;;;2.81;87.93;102383.38;5028661;28;20369;-71
2022/01/16 00:57:49;;;;;;;113.25;39.67;;;;;;;2.82;87.79;102386.03;5027714;28;20387;-71
2022/01/16 01:00:14;;;;;;;110.35;40.38;;;;;;;2.83;88.14;102381.72;5008932;28;20030;-70
2022/01/16 01:02:40;;;;;;;104.25;36.28;;;;;;;2.82;87.98;102348.69;4993377;28;20472;-70
2022/01/16 01:05:07;;;;;;;120.03;36.92;;;;;;;2.83;88.38;102345.25;5009321;28;20527;-70
2022/01/16 01:07:33;;;;;;;110.13;38.10;;;;;;;2.85;88.06;102354.84;5028414;28;20104;-70
2022/01/16 01:09:58;;;;;;;139.38;45.05;;;;;;;2.90;88.21;102368.00;5027198;28;20147;-71
2022/01/16 01:12:40;;;;;;;112.28;36.83;;;;;;;2.91;88.11;102351.50;5027193;28;20095;-71
2022/01/16 01:15:08;;;;;;;116.50;40.25;;;;;;;2.90;88.13;102370.59;5025948;28;20048;-71
2022/01/16 01:17:46;;;;;;;113.18;39.03;;;;;;;2.97;88.08;102364.66;5027585;28;20030;-70
2022/01/16 01:20:15;;;;;;;130.95;42.38;;;;;;;3.02;88.17;102376.09;5028273;28;20025;-70
2022/01/16 01:22:41;;;;;;;134.35;44.95;;;;;;;3.01;87.88;102369.09;5028723;28;20579;-70
2022/01/16 01:25:08;;;;;;;135.60;41.92;;;;;;;2.95;88.69;102363.75;5026956;28;20171;-70
2022/01/16 01:27:33;;;;;;;119.30;36.03;;;;;;;3.02;88.57;102356.97;5021952;28;20075;-72
2022/01/16 01:30:04;;;;;;;146.98;41.70;;;;;;;3.03;88.59;102363.91;5018913;28;20550;-72
2022/01/16 01:32:31;;;;;;;145.60;45.55;;;;;;;3.02;88.48;102378.69;5026228;28;20060;-71
2022/01/16 01:34:56;;;;;;;127.97;41.25;;;;;;;3.12;88.61;102374.56;4997773;28;20397;-69
2022/01/16 01:37:21;;;;;;;126.25;39.20;;;;;;;3.09;88.61;102382.28;5007075;28;20025;-69
2022/01/16 01:39:47;;;;;;;152.95;45.92;;;;;;;3.09;88.74;102357.97;5024060;28;20033;-71
2022/01/16 01:42:12;;;;;;;168.27;48.28;;;;;;;3.10;88.82;102318.94;5018155;28;20025;-72
2022/01/16 01:52:54;;;;;;;149.02;44.70;;;;;;;3.19;89.02;102309.56;5026695;28;20051;-72
2022/01/16 01:55:23;;;;;;;150.32;46.22;;;;;;;3.19;88.78;102333.88;5026615;28;20022;-69
2022/01/16 01:57:48;;;;;;;145.18;43.03;;;;;;;3.27;88.72;102342.75;5026696;28;20029;-70
2022/01/16 02:00:17;;;;;;;140.35;45.33;;;;;;;3.29;88.92;102350.59;5026154;28;20033;-72
2022/01/16 02:03:12;;;;;;;148.30;46.17;;;;;;;3.36;88.45;102375.03;5028926;22;20077;-71
2022/01/16 02:05:41;;;;;;;149.02;44.85;;;;;;;3.33;88.38;102372.38;5007627;28;20022;-72
2022/01/16 02:08:06;;;;;;;140.07;47.93;;;;;;;3.38;88.37;102375.97;5000764;28;20028;-72
2022/01/16 02:10:32;;;;;;;156.98;49.42;;;;;;;3.31;88.62;102395.78;5000598;28;20121;-72
2022/01/16 02:13:03;;;;;;;138.75;45.60;;;;;;;3.36;88.51;102395.88;4992655;28;20444;-69
2022/01/16 02:31:45;;;;;;;130.15;43.83;;;;;;;3.29;88.15;102381.88;5025308;28;20144;-70
2022/01/16 02:36:58;;;;;;;123.03;43.50;;;;;;;3.28;88.05;102390.50;5024723;28;20032;-70
2022/01/16 02:39:29;;;;;;;135.38;49.05;;;;;;;3.14;88.45;102377.19;5008495;28;20026;-71
2022/01/16 02:41:57;;;;;;;127.45;46.97;;;;;;;3.11;88.59;102378.00;4991607;28;20046;-72
2022/01/16 02:46:55;;;;;;;123.85;47.92;;;;;;;3.09;88.69;102373.59;4986108;28;20041;-72
2022/01/16 02:49:31;;;;;;;121.65;44.00;;;;;;;3.11;88.93;102372.81;4984988;28;20057;-70
2022/01/16 02:51:59;;;;;;;123.60;44.38;;;;;;;3.13;88.84;102367.63;5004191;28;20204;-69
2022/01/16 02:54:26;;;;;;;120.10;42.25;;;;;;;3.13;88.48;102354.59;5005774;28;20025;-69
2022/01/16 02:56:52;;;;;;;106.50;41.80;;;;;;;3.13;88.47;102354.59;5005151;28;20034;-70
2022/01/16 02:59:18;;;;;;;112.38;45.25;;;;;;;3.08;88.56;102356.22;5000486;28;20434;-69
2022/01/16 03:01:44;;;;;;;110.88;42.70;;;;;;;3.08;88.42;102345.78;4998403;28;20050;-69
2022/01/16 03:04:09;;;;;;;109.28;42.63;;;;;;;2.97;88.48;102343.84;4986310;28;20080;-69
2022/01/16 03:06:35;;;;;;;108.60;42.50;;;;;;;2.99;88.61;102336.06;4987019;28;20070;-71
2022/01/16 03:09:01;;;;;;;107.82;43.75;;;;;;;2.96;88.58;102336.88;5002295;28;20026;-70
2022/01/16 03:11:35;;;;;;;108.72;44.38;;;;;;;2.97;88.62;102332.53;5001010;28;20304;-71
2022/01/16 03:14:04;;;;;;;104.82;43.60;;;;;;;2.94;88.47;102333.34;4992641;28;20021;-72
2022/01/16 03:16:29;;;;;;;;;;;;;;;2.93;88.52;102326.41;5005643;28;20468;-70
2022/01/16 03:21:54;;;;;;;86.50;36.30;;;;;;;2.91;88.60;102315.06;5005443;28;20099;-71
2022/01/16 03:24:43;;;;;;;96.93;41.50;;;;;;;2.87;88.72;102313.22;5006436;28;20046;-72
2022/01/16 03:27:11;;;;;;;98.03;41.95;;;;;;;2.88;88.65;102313.28;5006049;28;20101;-71
2022/01/16 03:29:38;;;;;;;102.47;41.72;;;;;;;2.90;88.71;102319.41;5005735;28;20052;-68
2022/01/16 03:32:07;;;;;;;98.75;41.17;;;;;;;2.92;88.64;102319.41;4988948;28;20022;-69
2022/01/16 03:34:33;;;;;;;100.80;41.53;;;;;;;2.87;88.56;102311.53;5000783;28;20589;-70
2022/01/16 03:36:58;;;;;;;99.22;40.50;;;;;;;2.88;88.65;102309.78;4985869;28;20113;-68
2022/01/16 03:39:24;;;;;;;93.07;40.05;;;;;;;2.78;88.63;102311.31;4986760;28;20074;-69
2022/01/16 03:41:49;;;;;;;93.28;39.78;;;;;;;2.82;88.79;102307.91;4997640;28;20113;-70
2022/01/16 03:44:16;;;;;;;94.50;40.13;;;;;;;2.80;88.55;102309.59;5004160;28;20239;-68
2022/01/16 03:46:42;;;;;;;95.70;41.92;;;;;;;2.78;88.62;102296.59;4992218;28;20086;-70
2022/01/16 03:49:11;;;;;;;89.93;38.08;;;;;;;2.77;88.51;102305.22;4984521;28;20030;-71
2022/01/16 03:51:37;;;;;;;100.00;42.57;;;;;;;2.78;88.52;102300.91;4985522;28;20754;-71
2022/01/16 03:54:05;;;;;;;102.50;43.05;;;;;;;2.77;88.59;102310.41;4984944;28;20113;-70
2022/01/16 03:56:30;;;;;;;112.13;44.90;;;;;;;2.76;88.41;102303.47;5007834;28;20033;-69
2022/01/16 03:58:55;;;;;;;91.78;38.38;;;;;;;2.73;88.52;102303.38;5024060;28;20034;-70
2022/01/16 04:01:21;;;;;;;95.10;41.90;;;;;;;2.71;88.74;102305.06;5006021;28;20571;-72
2022/01/16 04:03:47;;;;;;;101.75;43.17;;;;;;;2.70;88.72;102308.53;5008023;28;20034;-69
2022/01/16 04:06:12;;;;;;;93.88;39.83;;;;;;;2.63;88.59;102296.22;5020380;28;20026;-70
2022/01/16 04:08:38;;;;;;;100.00;41.75;;;;;;;2.60;88.85;102302.25;5000466;28;20031;-76
2022/01/16 04:11:03;;;;;;;99.18;41.65;;;;;;;2.60;89.02;102296.16;4985104;28;20058;-70
2022/01/16 04:13:31;;;;;;;93.97;41.60;;;;;;;2.59;88.81;102294.41;4993345;28;20476;-72
2022/01/16 04:15:56;;;;;;;109.78;42.17;;;;;;;2.58;88.82;102297.81;4998431;28;20037;-69
2022/01/16 04:18:22;;;;;;;98.57;39.40;;;;;;;2.59;89.21;102292.66;5024725;28;20025;-71
2022/01/16 04:20:47;;;;;;;94.70;42.25;;;;;;;2.61;88.99;102303.09;5023085;28;20108;-71
2022/01/16 04:23:13;;;;;;;104.18;42.33;;;;;;;2.63;89.04;102302.31;5025249;28;20030;-70
2022/01/16 04:25:38;;;;;;;88.38;37.20;;;;;;;2.61;88.94;102290.09;5025146;28;20021;-69
2022/01/16 04:28:04;;;;;;;97.60;41.08;;;;;;;2.61;89.01;102285.78;5023138;28;20041;-72
2022/01/16 04:30:30;;;;;;;93.75;39.35;;;;;;;2.60;88.93;102289.22;5017617;28;20052;-70
2022/01/16 04:32:55;;;;;;;92.32;40.95;;;;;;;2.63;88.79;102302.31;4992241;28;20429;-72
2022/01/16 04:35:21;;;;;;;93.40;41.80;;;;;;;2.64;88.98;102306.66;4994930;28;20018;-70
2022/01/16 04:37:47;;;;;;;93.90;39.80;;;;;;;2.60;88.80;102293.53;5003485;28;20030;-70
2022/01/16 04:40:13;;;;;;;86.88;41.72;;;;;;;2.68;89.00;102294.59;5003671;28;20347;-71
2022/01/16 04:45:22;;;;;;;78.15;36.67;;;;;;;2.79;88.27;102294.84;4999717;28;20053;-71
2022/01/16 04:47:50;;;;;;;87.25;40.35;;;;;;;2.82;87.85;102281.00;5004274;28;20041;-71
2022/01/16 04:50:15;;;;;;;77.55;36.78;;;;;;;2.83;88.12;102278.44;5004440;28;20072;-71
2022/01/16 04:52:42;;;;;;;75.85;36.40;;;;;;;2.84;87.96;102281.91;5003996;28;20030;-70
2022/01/16 04:55:08;;;;;;;75.90;37.53;;;;;;;2.81;87.95;102282.75;5005405;28;20725;-69
2022/01/16 04:57:35;;;;;;;78.40;37.95;;;;;;;2.84;87.96;102277.59;4988736;28;20034;-71
2022/01/16 05:00:00;;;;;;;82.50;38.78;;;;;;;2.84;87.88;102281.91;5008292;28;20104;-70
2022/01/16 05:02:26;;;;;;;72.72;36.22;;;;;;;2.87;87.96;102287.19;5007256;28;20473;-70
2022/01/16 05:04:51;;;;;;;67.22;32.13;;;;;;;2.84;87.81;102285.41;5007273;28;20026;-70
2022/01/16 05:07:17;;;;;;;80.05;37.17;;;;;;;2.85;88.20;102287.16;5008774;28;20022;-69
2022/01/16 05:09:42;;;;;;;75.28;35.58;;;;;;;2.95;88.13;102276.97;5007471;28;20038;-69
2022/01/16 05:12:12;;;;;;;64.20;33.08;;;;;;;2.98;87.83;102283.09;5004947;28;20038;-71
2022/01/16 05:17:21;;;;;;;62.97;30.88;;;;;;;3.13;87.88;102279.06;5005634;28;20504;-70
2022/01/16 05:19:47;;;;;;;73.60;33.58;;;;;;;3.17;87.73;102288.69;4998118;28;20109;-70
2022/01/16 05:22:12;;;;;;;68.57;32.83;;;;;;;3.17;87.73;102280.88;4996865;28;20545;-72
2022/01/16 05:24:37;;;;;;;70.20;33.47;;;;;;;3.24;87.90;102276.66;5001262;28;20109;-69
2022/01/16 05:27:05;;;;;;;54.63;27.67;;;;;;;3.31;87.58;102275.06;5003424;28;20364;-70
2022/01/16 05:29:30;;;;;;;58.80;30.52;;;;;;;3.36;87.40;102274.31;5001555;28;20042;-70
2022/01/16 05:31:56;;;;;;;54.17;27.13;;;;;;;3.38;87.58;102279.53;5027466;28;20083;-70
2022/01/16 05:34:23;;;;;;;57.15;27.52;;;;;;;3.44;87.47;102276.19;5012468;28;20114;-71
2022/01/16 05:36:48;;;;;;;61.67;32.40;;;;;;;3.48;87.12;102273.66;5008736;28;20051;-70
2022/01/16 05:39:14;;;;;;;57.00;28.15;;;;;;;3.56;87.16;102286.84;5008723;28;20084;-69
2022/01/16 05:41:39;;;;;;;61.42;27.55;;;;;;;3.62;86.91;102283.47;5003901;28;20088;-70
2022/01/16 05:44:04;;;;;;;51.38;26.60;;;;;;;3.68;86.71;102275.75;5006968;28;20029;-71
2022/01/16 05:46:30;;;;;;;48.85;25.42;;;;;;;3.75;86.31;102282.84;5006784;28;20693;-69
2022/01/16 05:48:55;;;;;;;44.97;23.90;;;;;;;3.83;86.30;102285.59;5007972;28;20030;-70
2022/01/16 05:51:21;;;;;;;43.47;21.63;;;;;;;3.89;86.07;102282.22;5008535;28;20018;-69
2022/01/16 05:53:46;;;;;;;48.15;24.05;;;;;;;3.96;85.87;102293.59;5007870;28;20026;-71
2022/01/16 05:56:15;;;;;;;37.47;20.25;;;;;;;4.00;85.49;102288.47;5008544;28;20026;-70
2022/01/16 05:58:40;;;;;;;35.63;20.40;;;;;;;4.01;85.42;102285.00;5007834;28;20084;-70
2022/01/16 06:01:05;;;;;;;39.53;19.80;;;;;;;4.06;85.23;102289.44;5006256;28;20045;-69
2022/01/16 06:03:31;;;;;;;36.67;17.90;;;;;;;4.07;85.31;102283.38;5007551;28;20096;-69
2022/01/16 06:05:56;;;;;;;36.13;16.85;;;;;;;4.17;84.99;102285.28;5007361;28;20034;-69
2022/01/16 06:08:21;;;;;;;33.63;15.77;;;;;;;4.24;84.37;102281.91;5007201;28;20053;-70
2022/01/16 06:10:47;;;;;;;21.58;10.35;;;;;;;4.39;82.18;102275.16;5007377;28;20124;-70
2022/01/16 06:13:13;;;;;;;15.70;5.93;;;;;;;4.60;78.95;102279.81;5007004;28;20030;-70
2022/01/16 06:15:40;;;;;;;5.15;3.38;;;;;;;4.85;74.07;102279.31;5007707;28;20112;-68
2022/01/16 06:18:06;;;;;;;10.88;3.05;;;;;;;5.12;72.30;102288.34;5007047;28;20030;-69
2022/01/16 06:20:31;;;;;;;5.45;2.97;;;;;;;5.31;70.75;102292.94;5007941;28;20034;-71
2022/01/16 06:22:57;;;;;;;5.80;2.85;;;;;;;5.44;69.57;102301.78;5007562;28;20424;-69
2022/01/16 06:25:23;;;;;;;6.38;3.03;;;;;;;5.56;68.56;102285.38;5006060;28;20037;-70
2022/01/16 06:27:49;;;;;;;5.07;2.55;;;;;;;5.67;67.67;102289.81;5006585;28;20516;-70
2022/01/16 06:30:15;;;;;;;6.18;2.83;;;;;;;5.74;67.93;102294.25;5007697;28;20025;-69
2022/01/16 06:32:40;;;;;;;7.05;4.18;;;;;;;5.75;67.99;102300.38;5006804;28;20272;-69
2022/01/16 06:35:07;;;;;;;8.85;4.20;;;;;;;5.76;68.42;102292.53;5005833;28;20100;-69
2022/01/16 06:37:33;;;;;;;8.52;3.72;;;;;;;5.75;68.04;102296.00;5026866;28;20073;-68
2022/01/16 06:39:58;;;;;;;5.13;2.85;;;;;;;5.74;68.11;102302.09;5025881;28;20475;-67
2022/01/16 06:42:24;;;;;;;4.75;2.80;;;;;;;5.78;67.85;102311.72;5025615;28;20479;-69
2022/01/16 06:44:50;;;;;;;4.18;3.00;;;;;;;5.81;67.83;102309.13;5015652;28;20370;-70
2022/01/16 06:47:15;;;;;;;5.30;3.33;;;;;;;5.81;67.63;102317.00;5007390;28;20032;-67
2022/01/16 06:49:41;;;;;;;7.05;3.28;;;;;;;5.84;66.97;102320.50;5007760;28;20021;-68
2022/01/16 06:52:06;;;;;;;5.50;2.95;;;;;;;5.81;67.41;102321.38;5006854;28;20361;-68
2022/01/16 06:54:32;;;;;;;6.50;3.00;;;;;;;5.85;67.41;102324.88;5007087;28;20519;-69
2022/01/16 06:56:57;;;;;;;7.35;3.20;;;;;;;5.84;67.72;102334.44;4999326;28;20084;-72
2022/01/16 06:59:22;;;;;;;6.60;3.30;;;;;;;5.88;67.63;102333.63;4985182;28;20477;-70
2022/01/16 07:01:48;;;;;;;8.70;3.08;;;;;;;5.89;68.01;102343.22;4986628;28;20038;-69
2022/01/16 07:04:13;;;;;;;4.93;3.05;;;;;;;5.92;68.53;102337.16;5007383;28;20400;-69
2022/01/16 07:06:38;;;;;;;5.25;3.47;;;;;;;5.95;68.71;102345.03;5006042;28;20049;-68
2022/01/16 07:09:04;;;;;;;8.13;3.65;;;;;;;5.94;68.42;102348.50;5006460;28;20117;-69
2022/01/16 07:11:29;;;;;;;9.13;3.60;;;;;;;6.00;67.96;102356.44;5000735;28;20380;-69
2022/01/16 07:13:54;;;;;;;6.28;3.47;;;;;;;6.02;68.13;102345.97;4988907;28;20058;-68
2022/01/16 07:16:21;;;;;;;7.18;3.55;;;;;;;6.03;67.94;102359.09;4992672;28;20447;-67
2022/01/16 07:18:46;;;;;;;8.68;3.65;;;;;;;6.04;67.76;102359.97;5001548;28;20117;-68
2022/01/16 07:21:14;;;;;;;7.68;4.07;;;;;;;6.05;67.60;102357.38;5015277;28;20112;-73
2022/01/16 07:23:41;;;;;;;11.35;3.50;;;;;;;6.09;67.39;102371.38;5006668;28;20024;-67
2022/01/16 07:26:07;;;;;;;5.82;3.10;;;;;;;6.13;67.43;102380.13;5003625;28;20062;-67
2022/01/16 07:28:32;;;;;;;8.02;4.03;;;;;;;6.09;67.53;102376.59;5002635;28;20091;-67
2022/01/16 07:30:57;;;;;;;11.05;3.40;;;;;;;6.10;67.44;102380.97;5006001;28;20436;-67
2022/01/16 07:33:23;;;;;;;9.70;3.42;;;;;;;6.15;67.46;102383.63;5006785;28;20344;-68
2022/01/16 07:35:48;;;;;;;7.40;4.25;;;;;;;6.18;67.62;102368.81;5004979;28;20029;-68
2022/01/16 07:38:13;;;;;;;9.07;3.50;;;;;;;6.23;67.86;102383.72;5005672;28;20026;-69
2022/01/16 07:40:39;;;;;;;9.35;4.10;;;;;;;6.24;67.97;102396.81;5006369;28;20060;-69
2022/01/16 07:43:04;;;;;;;6.97;3.92;;;;;;;6.25;68.21;102395.94;5005462;28;20109;-70
2022/01/16 07:45:30;;;;;;;6.15;3.35;;;;;;;6.24;68.56;102395.94;5005589;28;20026;-68
2022/01/16 07:47:55;;;;;;;11.15;3.65;;;;;;;6.27;69.01;102394.22;5004659;28;20065;-70
2022/01/16 07:50:21;;;;;;;10.88;3.85;;;;;;;6.35;69.90;102401.28;5005420;28;20045;-73
2022/01/16 07:52:48;;;;;;;8.98;4.10;;;;;;;6.38;71.24;102401.31;5004670;28;20402;-69
2022/01/16 07:55:13;;;;;;;11.65;4.60;;;;;;;6.38;71.95;102409.16;5004792;28;20006;-72
2022/01/16 07:57:39;;;;;;;14.00;4.80;;;;;;;6.36;72.68;102417.00;5003092;28;20026;-67
2022/01/16 08:00:05;;;;;;;9.57;5.07;;;;;;;6.41;73.14;102427.53;5004933;28;20122;-68
2022/01/16 08:02:30;;;;;;;10.73;4.68;;;;;;;6.43;73.56;102429.28;4998703;28;20480;-69
2022/01/16 08:04:56;;;;;;;8.68;5.03;;;;;;;6.46;73.77;102417.94;5006397;28;20034;-71
2022/01/16 08:07:21;;;;;;;10.68;5.57;;;;;;;6.42;74.31;102427.50;5005363;28;20022;-74
2022/01/16 08:09:47;;;;;;;21.23;5.82;;;;;;;6.43;74.75;102423.16;5004583;28;20088;-73
2022/01/16 08:12:14;;;;;;;12.27;6.22;;;;;;;6.43;75.06;102424.03;5006984;28;20076;-73
2022/01/16 08:14:40;;;;;;;15.48;6.13;;;;;;;6.46;75.06;102415.31;5005666;28;20530;-74
2022/01/16 08:17:05;;;;;;;15.05;6.18;;;;;;;6.49;75.40;102417.97;5003730;28;20480;-76
2022/01/16 08:19:31;;;;;;;13.68;6.50;;;;;;;6.52;75.52;102420.63;5008446;28;20353;-73
2022/01/16 08:21:57;;;;;;;17.00;6.30;;;;;;;6.50;75.61;102408.38;5005372;28;20133;-72
2022/01/16 08:24:23;;;;;;;17.65;7.22;;;;;;;6.48;75.71;102402.25;5017407;28;20113;-72
2022/01/16 08:26:49;;;;;;;15.00;6.88;;;;;;;6.47;75.81;102400.50;5003957;28;20060;-74
2022/01/16 08:29:14;;;;;;;16.55;6.03;;;;;;;6.48;75.75;102394.41;5001176;28;20886;-67
2022/01/16 08:31:40;;;;;;;16.42;6.28;;;;;;;6.50;75.64;102401.38;5008863;28;20446;-67
2022/01/16 08:34:05;;;;;;;11.15;5.95;;;;;;;6.53;75.38;102395.31;5006761;28;20452;-71
2022/01/16 08:36:31;;;;;;;11.48;6.32;;;;;;;6.57;75.34;102404.97;5024227;28;20443;-69
2022/01/16 08:38:56;;;;;;;12.18;6.53;;;;;;;6.56;75.23;102398.81;5008840;28;20383;-71
2022/01/16 08:41:23;;;;;;;13.65;7.00;;;;;;;6.57;75.25;102403.19;5008009;28;20098;-69
2022/01/16 08:43:48;;;;;;;16.83;6.05;;;;;;;6.61;74.49;102408.47;5004921;28;20088;-69
2022/01/16 08:46:14;;;;;;;14.98;6.80;;;;;;;6.53;74.84;102411.91;5009413;28;20415;-71
2022/01/16 08:48:39;;;;;;;17.75;7.95;;;;;;;6.50;75.32;102411.88;5010196;28;20030;-71
2022/01/16 08:51:05;;;;;;;17.83;9.80;;;;;;;6.42;76.14;102413.56;5021825;28;20363;-71
2022/01/16 08:53:31;;;;;;;21.10;9.45;;;;;;;6.35;76.78;102427.47;5008586;28;20034;-74
2022/01/16 08:55:57;;;;;;;29.30;11.48;;;;;;;6.26;77.43;102429.09;5006049;28;20026;-74
2022/01/16 08:58:22;;;;;;;32.25;15.10;;;;;;;6.21;78.10;102438.66;5007777;28;20037;-74
2022/01/16 09:00:50;;;;;;;37.00;16.88;;;;;;;6.15;78.59;102436.88;5008667;28;20041;-65
2022/01/16 09:03:16;;;;;;;44.53;19.08;;;;;;;5.96;79.54;102443.59;5009306;28;20049;-68
2022/01/16 09:05:41;;;;;;;43.28;18.67;;;;;;;5.97;79.72;102437.50;5008994;28;20113;-70
2022/01/16 09:08:07;;;;;;;45.55;19.85;;;;;;;5.98;79.75;102448.84;5008589;28;20180;-68
2022/01/16 09:10:32;;;;;;;43.72;21.02;;;;;;;5.80;80.36;102448.66;5009013;28;20041;-69
2022/01/16 09:12:58;;;;;;;43.95;21.88;;;;;;;5.80;80.58;102443.41;5015262;28;20067;-69
2022/01/16 09:15:23;;;;;;;58.38;22.95;;;;;;;5.71;80.91;102450.25;5028103;28;20120;-68
2022/01/16 09:17:48;;;;;;;56.38;23.60;;;;;;;5.74;80.90;102456.44;5027171;28;20021;-68
2022/01/16 09:20:15;;;;;;;50.05;22.98;;;;;;;5.71;81.21;102459.00;5028686;28;20077;-69
2022/01/16 09:22:44;;;;;;;56.67;22.88;;;;;;;5.69;81.41;102461.59;5028224;28;20044;-69
2022/01/16 09:25:11;;;;;;;54.38;22.65;;;;;;;5.74;81.25;102466.00;5027839;28;20017;-69
2022/01/16 09:27:37;;;;;;;59.03;25.45;;;;;;;5.69;81.38;102473.81;5026749;28;20034;-69
2022/01/16 09:30:07;;;;;;;54.13;23.00;;;;;;;5.74;81.37;102472.13;5027467;28;20503;-69
2022/01/16 09:32:33;;;;;;;54.00;23.30;;;;;;;5.74;81.44;102477.34;5027501;28;20026;-70
2022/01/16 09:35:00;;;;;;;55.33;23.33;;;;;;;5.75;81.45;102473.88;5026192;28;20376;-70
2022/01/16 09:37:26;;;;;;;56.78;22.30;;;;;;;5.74;81.51;102477.34;5027375;28;20043;-69
2022/01/16 09:39:52;;;;;;;56.67;22.90;;;;;;;5.76;81.38;102478.25;5026800;28;20064;-69
2022/01/16 09:42:17;;;;;;;59.05;24.27;;;;;;;5.72;81.71;102472.97;5000625;28;20034;-70
2022/01/16 09:44:43;;;;;;;54.40;23.95;;;;;;;5.72;81.56;102484.28;5009001;28;20049;-70
2022/01/16 09:47:09;;;;;;;60.42;24.88;;;;;;;5.73;81.58;102490.41;5007700;28;20025;-66
2022/01/16 09:49:35;;;;;;;57.28;24.40;;;;;;;5.73;81.64;102487.78;5006818;28;20026;-75
2022/01/16 09:52:00;;;;;;;55.38;23.65;;;;;;;5.71;81.74;102481.66;5006924;28;20042;-74
2022/01/16 09:54:26;;;;;;;66.00;26.00;;;;;;;5.69;81.78;102489.50;5007704;28;20061;-75
2022/01/16 09:56:51;;;;;;;63.05;26.50;;;;;;;5.72;81.74;102497.38;5007365;28;20464;-74
2022/01/16 09:59:17;;;;;;;59.70;26.05;;;;;;;5.69;81.79;102490.38;5008025;28;20507;-72
2022/01/16 10:01:42;;;;;;;55.83;25.65;;;;;;;5.74;81.69;102503.50;4986516;28;20030;-74
2022/01/16 10:04:35;;;;;;;56.70;25.77;;;;;;;5.72;81.75;102494.75;4987923;28;20077;-72
2022/01/16 10:07:09;;;;;;;61.00;26.20;;;;;;;5.69;81.77;102506.06;4978730;28;20080;-71
2022/01/16 10:09:35;;;;;;;69.78;27.45;;;;;;;5.69;81.75;102513.03;4987171;28;20484;-76
2022/01/16 10:12:04;;;;;;;68.88;27.88;;;;;;;5.65;82.07;102513.84;4986475;28;20112;-70
2022/01/16 10:14:37;;;;;;;70.43;26.55;;;;;;;5.65;81.91;102519.97;4987253;28;20046;-71
2022/01/16 10:17:13;;;;;;;70.10;26.65;;;;;;;5.64;82.04;102523.44;4986186;28;20045;-76
2022/01/16 10:19:39;;;;;;;62.05;26.38;;;;;;;5.67;81.95;102523.47;4987650;28;20571;-76
2022/01/16 10:22:09;;;;;;;72.55;30.92;;;;;;;5.68;81.71;102516.50;4985828;28;20032;-75
2022/01/16 10:24:36;;;;;;;69.93;27.58;;;;;;;5.70;81.58;102525.25;4982378;28;20492;-75
2022/01/16 10:27:07;;;;;;;66.63;26.35;;;;;;;5.65;81.95;102532.16;4974413;28;20029;-76
2022/01/16 10:29:38;;;;;;;77.70;31.33;;;;;;;5.63;81.68;102526.03;4985979;28;20121;-75
2022/01/16 10:32:19;;;;;;;75.10;32.40;;;;;;;5.50;82.52;102535.41;4975627;28;20042;-73
2022/01/16 10:34:46;;;;;;;78.25;31.23;;;;;;;5.54;82.21;102532.00;4975972;28;20546;-74
2022/01/16 10:37:32;;;;;;;83.70;31.75;;;;;;;5.52;82.41;102529.38;4984937;28;20485;-75
2022/01/16 10:40:07;;;;;;;87.45;32.40;;;;;;;5.45;82.39;102532.75;4979600;28;20610;-73
2022/01/16 10:42:34;;;;;;;79.50;29.45;;;;;;;5.53;82.51;102523.28;4984434;28;20025;-73
2022/01/16 10:45:13;;;;;;;78.18;29.73;;;;;;;5.57;82.35;102538.16;4984458;28;20033;-72
2022/01/16 10:47:44;;;;;;;75.65;29.77;;;;;;;5.60;82.24;102532.06;4983330;28;20511;-74
2022/01/16 10:50:14;;;;;;;78.90;30.88;;;;;;;5.59;82.34;102529.44;4984904;28;20719;-73
2022/01/16 10:52:46;;;;;;;81.60;31.25;;;;;;;5.66;82.25;102532.16;4982584;28;20021;-72
2022/01/16 10:55:11;;;;;;;71.25;28.20;;;;;;;5.64;82.28;102527.78;4984725;28;20396;-72
2022/01/16 10:57:36;;;;;;;84.90;31.98;;;;;;;5.72;82.23;102531.38;4984213;28;20018;-72
2022/01/16 11:00:22;;;;;;;81.70;29.70;;;;;;;5.76;82.20;102527.97;4984428;28;20037;-72
2022/01/16 11:02:50;;;;;;;76.80;30.27;;;;;;;5.83;82.11;102531.53;4993998;28;20073;-72
2022/01/16 11:05:20;;;;;;;78.38;29.52;;;;;;;5.90;81.90;102528.13;4984560;28;20048;-74
2022/01/16 11:07:46;;;;;;;73.53;29.15;;;;;;;5.92;82.08;102517.69;4983160;28;20033;-74
2022/01/16 11:10:26;;;;;;;88.75;32.45;;;;;;;5.89;82.16;102513.28;4983558;28;20616;-74
2022/01/16 11:12:52;;;;;;;84.50;31.42;;;;;;;5.97;82.21;102515.13;4984002;28;20026;-73
2022/01/16 11:15:18;;;;;;;84.20;31.90;;;;;;;5.98;82.18;102517.75;4984073;28;20083;-72
2022/01/16 11:17:43;;;;;;;79.93;30.95;;;;;;;6.08;82.03;102521.38;4983437;28;20132;-74
2022/01/16 11:20:10;;;;;;;88.60;31.67;;;;;;;6.12;81.83;102519.69;4982300;28;20038;-74
2022/01/16 11:22:56;;;;;;;94.35;33.83;;;;;;;6.26;81.66;102520.72;4984238;28;20479;-75
2022/01/16 11:25:30;;;;;;;75.63;30.23;;;;;;;6.40;81.48;102531.38;4984218;28;20123;-73
2022/01/16 11:28:15;;;;;;;82.78;31.70;;;;;;;6.54;80.66;102534.13;4983544;28;20034;-74
2022/01/16 11:30:49;;;;;;;74.55;30.00;;;;;;;6.69;80.18;102536.00;4982496;28;20538;-74
2022/01/16 11:33:16;;;;;;;74.13;30.98;;;;;;;6.88;79.45;102537.94;4984909;28;20018;-72
2022/01/16 11:35:53;;;;;;;70.72;29.70;;;;;;;6.97;79.14;102534.50;4979366;28;20484;-70
2022/01/16 11:38:20;;;;;;;71.93;29.20;;;;;;;6.94;79.03;102536.25;4973971;28;20680;-69
2022/01/16 11:40:46;;;;;;;67.28;27.42;;;;;;;7.16;78.71;102527.66;4981367;28;20026;-71
2022/01/16 11:43:23;;;;;;;64.78;26.48;;;;;;;7.31;77.87;102538.28;4982070;28;20053;-70
2022/01/16 11:46:09;;;;;;;64.97;28.42;;;;;;;7.27;77.83;102520.78;4982524;28;20545;-69
2022/01/16 11:49:03;;;;;;;66.88;26.48;;;;;;;7.38;77.31;102517.34;4983259;28;20046;-70
2022/01/16 11:51:39;;;;;;;63.22;25.25;;;;;;;7.30;77.43;102514.69;4983734;28;20558;-69
2022/01/16 11:54:19;;;;;;;56.38;25.60;;;;;;;7.30;77.38;102514.69;4983874;28;20630;-70
2022/01/16 11:56:45;;;;;;;53.47;23.67;;;;;;;7.33;76.97;102519.94;4982002;28;20058;-70
2022/01/16 11:59:25;;;;;;;49.95;21.38;;;;;;;7.33;76.78;102522.56;4984388;28;20554;-71
2022/01/16 12:02:18;;;;;;;58.53;22.13;;;;;;;7.37;76.84;102523.47;4982920;28;20050;-70